F/V Barracuda II — FMIF — position and weather

sailwx.info

Track history (hours):
 
Tides and Currents Weather Stations Pressure Air Temp Water Temp Dewpoint Dewpoint Depression Visibility Wind Speed Wind Dir Waves Ship Positions

F/V Barracuda II

Last reported at 2015-May-07 07:34 UTC. Time now 2015-May-07 09:39 UTC.
Position N 43°13' E 004°41'.

Length 23 m.

Type: Fishing. MMSI: 228236800.

Date/timePositionNaut miles runAvg speedWind from/ knotsBaromVisibWave heightAir tempDewpointWater temp
2015-May-07 07:34N 43°13' E 004°41'22 0.5
2015-May-05 14:04N 43°23' E 004°13'13 0.5
2015-May-04 12:14N 43°12' E 004°23'  
2015-Apr-29 13:33N 43°25' E 004°07'3 3.2
2015-Apr-29 12:33N 43°22' E 004°09'4 3.9
2015-Apr-29 11:23N 43°21' E 004°15'3 3.7
2015-Apr-29 10:33N 43°20' E 004°19'3 2.8
2015-Apr-29 09:23N 43°18' E 004°23'6 4.2
2015-Apr-29 08:04N 43°17' E 004°30'5773.4
2015-Apr-29 07:17N 42°20' E 004°33'5768.1
2015-Apr-29 06:27N 43°17' E 004°38'30 1.7
2015-Apr-28 12:24N 43°29' E 003°59'2 2.6
2015-Apr-28 11:29N 43°27' E 004°01'4 3.6
2015-Apr-28 10:27N 43°25' E 004°05'3 2.2
2015-Apr-28 09:11N 43°22' E 004°08'3 4.1
2015-Apr-28 08:28N 43°21' E 004°11'4 3.6
2015-Apr-28 07:28N 43°20' E 004°16'4 3.8
2015-Apr-28 06:30N 43°20' E 004°21'4 4.3
2015-Apr-28 05:29N 43°24' E 004°20'8 0.5
2015-Apr-27 13:31N 43°23' E 004°09'3 3.4
2015-Apr-27 12:30N 43°21' E 004°13'4 4.3
2015-Apr-27 11:33N 43°18' E 004°17'7 3.7
2015-Apr-27 09:32N 43°17' E 004°28'3 2.6
2015-Apr-27 08:25N 43°20' E 004°30'  
Track history (hours):
 
Tides and Currents Weather Stations Pressure Air Temp Water Temp Dewpoint Dewpoint Depression Visibility Wind Speed Wind Dir Waves Ship Positions

F/V Barracuda II

Last reported at 2015-May-07 07:34 UTC. Time now 2015-May-07 09:39 UTC.
Position N 43°13' E 004°41'.

Length 23 m.

Type: Fishing. MMSI: 228236800.

Date/timePositionNaut miles runAvg speedWind from/ knotsBaromVisibWave heightAir tempDewpointWater temp
2015-May-07 07:34N 43°13' E 004°41'22 0.5
2015-May-05 14:04N 43°23' E 004°13'13 0.5
2015-May-04 12:14N 43°12' E 004°23'  
2015-Apr-29 13:33N 43°25' E 004°07'3 3.2
2015-Apr-29 12:33N 43°22' E 004°09'4 3.9
2015-Apr-29 11:23N 43°21' E 004°15'3 3.7
2015-Apr-29 10:33N 43°20' E 004°19'3 2.8
2015-Apr-29 09:23N 43°18' E 004°23'6 4.2
2015-Apr-29 08:04N 43°17' E 004°30'5773.4
2015-Apr-29 07:17N 42°20' E 004°33'5768.1
2015-Apr-29 06:27N 43°17' E 004°38'30 1.7
2015-Apr-28 12:24N 43°29' E 003°59'2 2.6
2015-Apr-28 11:29N 43°27' E 004°01'4 3.6
2015-Apr-28 10:27N 43°25' E 004°05'3 2.2
2015-Apr-28 09:11N 43°22' E 004°08'3 4.1
2015-Apr-28 08:28N 43°21' E 004°11'4 3.6
2015-Apr-28 07:28N 43°20' E 004°16'4 3.8
2015-Apr-28 06:30N 43°20' E 004°21'4 4.3
2015-Apr-28 05:29N 43°24' E 004°20'8 0.5
2015-Apr-27 13:31N 43°23' E 004°09'3 3.4
2015-Apr-27 12:30N 43°21' E 004°13'4 4.3
2015-Apr-27 11:33N 43°18' E 004°17'7 3.7
2015-Apr-27 09:32N 43°17' E 004°28'3 2.6
2015-Apr-27 08:25N 43°20' E 004°30'  

Dump ship's entire track history